Time;durP1;ratioP1;P1;durP2;ratioP2;P2;SDS_P1;SDS_P2;PMS_P1;PMS_P2;Temp;Humidity;BMP_temperature;BMP_pressure;BME280_temperature;BME280_humidity;BME280_pressure;Samples;Min_cycle;Max_cycle;Signal;HPM_P1;HPM_P2
2023/04/29 00:01:30;;;;;;;32.45;20.48;;;11.40;99.90;;;-144.05;85.75;56891.31;5051801;28;20029;-80
2023/04/29 00:03:57;;;;;;;35.83;20.15;;;11.40;99.90;;;-144.05;85.17;56897.69;5075090;28;20036;-78
2023/04/29 00:06:22;;;;;;;31.17;19.45;;;11.30;99.90;;;-144.05;85.14;56887.06;5075066;28;20051;-77
2023/04/29 00:08:48;;;;;;;35.60;20.38;;;11.30;99.90;;;-144.05;84.87;56897.69;5058298;28;20021;-77
2023/04/29 00:11:15;;;;;;;33.90;20.50;;;11.30;99.90;;;-144.05;84.59;56904.06;5075753;28;20051;-78
2023/04/29 00:13:40;;;;;;;33.20;20.00;;;11.20;99.90;;;-144.05;84.42;56891.31;5072570;28;20087;-85
2023/04/29 00:16:10;;;;;;;38.35;22.73;;;11.20;99.90;;;-144.05;84.13;56882.81;5039426;28;20037;-81
2023/04/29 00:18:36;;;;;;;39.10;22.80;;;11.20;99.90;;;-144.05;84.21;56887.06;5054595;28;20045;-81
2023/04/29 00:21:05;;;;;;;39.15;24.15;;;11.20;99.90;;;-144.05;84.38;56891.31;5055370;28;20028;-81
2023/04/29 00:23:33;;;;;;;45.85;23.73;;;11.20;99.90;;;-144.05;84.51;56897.69;5038221;28;20065;-81
2023/04/29 00:25:59;;;;;;;39.05;24.23;;;11.20;99.90;;;-144.05;84.25;56906.19;5053456;28;20124;-83
2023/04/29 00:28:25;;;;;;;49.28;27.08;;;11.20;99.90;;;-144.05;84.37;56889.19;5053033;28;20397;-81
2023/04/29 00:30:52;;;;;;;45.90;25.98;;;11.10;99.90;;;-144.05;84.42;56910.44;5052878;28;20033;-81
2023/04/29 00:33:18;;;;;;;46.17;25.75;;;11.20;99.90;;;-144.05;84.06;56904.06;5054226;28;20044;-81
2023/04/29 00:35:44;;;;;;;46.25;25.90;;;11.20;99.90;;;-144.05;85.20;56908.31;5052930;28;20426;-81
2023/04/29 00:38:10;;;;;;;48.75;27.90;;;11.10;99.90;;;-144.05;84.66;56891.31;5036147;28;20086;-81
2023/04/29 00:40:36;;;;;;;51.20;27.70;;;11.10;99.90;;;-144.05;85.39;56906.19;5053092;28;20025;-81
2023/04/29 00:43:02;;;;;;;54.05;28.77;;;11.10;99.90;;;-144.05;85.61;56912.56;5052984;28;20040;-82
2023/04/29 00:45:27;;;;;;;55.72;28.98;;;11.10;99.90;;;-144.05;85.72;56908.31;5052789;28;20033;-82
2023/04/29 00:47:53;;;;;;;57.22;28.67;;;11.10;99.90;;;-144.05;85.82;56906.19;5054287;28;20071;-81
2023/04/29 00:50:21;;;;;;;55.85;29.17;;;11.10;99.90;;;-144.05;85.10;56897.69;5052808;28;20033;-81
2023/04/29 00:52:48;;;;;;;56.65;29.60;;;11.10;99.90;;;-144.05;85.29;56895.56;5052576;28;20032;-81
2023/04/29 00:55:14;;;;;;;52.38;29.92;;;11.10;99.90;;;-144.05;85.82;56895.56;5053879;28;20032;-81
2023/04/29 00:57:41;;;;;;;54.97;29.52;;;11.10;99.90;;;-144.05;86.48;56908.31;5054057;28;20056;-81
2023/04/29 01:00:08;;;;;;;55.92;28.55;;;11.00;99.90;;;-144.05;86.12;56895.56;5052237;28;20099;-80
2023/04/29 01:02:35;;;;;;;60.47;30.73;;;11.00;99.90;;;-144.05;86.12;56923.19;5052312;28;20033;-82
2023/04/29 01:05:01;;;;;;;60.08;32.20;;;11.00;99.90;;;-144.05;86.87;56882.81;5052183;28;20086;-82
2023/04/29 01:07:47;;;;;;;61.47;30.75;;;10.90;99.90;;;-144.05;86.91;56891.31;5053496;28;20036;-81
2023/04/29 01:10:28;;;;;;;60.65;32.28;;;10.90;99.90;;;-144.05;87.20;56912.56;5051940;28;20024;-82
2023/04/29 01:13:18;;;;;;;59.90;31.00;;;11.00;99.90;;;-144.05;86.83;56895.56;5052057;28;20040;-81
2023/04/29 01:16:01;;;;;;;66.22;32.20;;;10.90;99.90;;;-144.05;86.60;56895.56;5052251;28;20118;-80
2023/04/29 01:18:48;;;;;;;65.55;32.22;;;10.80;99.90;;;-144.05;86.89;56897.69;5052231;28;20600;-83
2023/04/29 01:21:14;;;;;;;67.80;33.38;;;10.80;99.90;;;-144.05;87.17;56895.56;5052484;28;20397;-82
2023/04/29 01:23:40;;;;;;;76.43;34.60;;;10.80;99.90;;;-144.05;87.04;56895.56;5052209;28;20123;-81
2023/04/29 01:26:07;;;;;;;76.40;34.50;;;10.80;99.90;;;-144.05;86.94;56897.69;5051783;28;20029;-82
2023/04/29 01:29:22;;;;;;;73.93;34.45;;;10.80;99.90;;;-144.05;86.67;56910.44;5070392;28;20036;-76
2023/04/29 01:32:07;;;;;;;75.28;33.15;;;10.80;99.90;;;-144.05;86.54;56891.31;5034619;28;20102;-82
2023/04/29 01:35:12;;;;;;;77.90;35.03;;;10.70;99.90;;;-144.05;86.51;56914.69;5051933;28;20029;-81
2023/04/29 01:38:02;;;;;;;73.22;32.83;;;10.70;99.90;;;-144.05;86.46;56925.28;5012030;28;20503;-81
2023/04/29 01:41:34;;;;;;;80.50;35.72;;;10.60;99.90;;;-144.05;86.79;56918.94;5051526;28;20116;-81
2023/04/29 01:44:03;;;;;;;79.82;35.03;;;10.60;99.90;;;-144.05;87.13;56914.69;4987851;28;20122;-80
2023/04/29 01:46:30;;;;;;;81.65;35.55;;;10.60;99.90;;;-144.05;86.81;56895.56;4955838;28;20145;-82
2023/04/29 01:48:56;;;;;;;82.45;33.72;;;10.60;99.90;;;-144.05;86.80;56895.56;4996955;28;20044;-83
2023/04/29 01:51:22;;;;;;;79.13;36.88;;;10.60;99.90;;;-144.05;87.08;56910.44;5034930;28;20021;-81
2023/04/29 01:53:48;;;;;;;90.65;37.85;;;10.60;99.90;;;-144.05;87.53;56895.56;5052822;28;20025;-83
2023/04/29 01:56:14;;;;;;;89.18;37.80;;;10.60;99.90;;;-144.05;87.18;56916.81;5051351;28;20060;-82
2023/04/29 01:58:40;;;;;;;86.50;37.25;;;10.50;99.90;;;-144.05;87.23;56895.56;5051465;28;20021;-81
2023/04/29 02:01:06;;;;;;;91.63;37.17;;;10.50;99.90;;;-144.05;87.37;56897.69;5051204;28;20477;-82
2023/04/29 02:03:32;;;;;;;87.32;35.47;;;10.50;99.90;;;-144.05;87.34;56901.94;5034580;28;20031;-83
2023/04/29 02:05:58;;;;;;;92.80;38.63;;;10.50;99.90;;;-144.05;87.33;56899.81;5034598;28;20099;-83
2023/04/29 02:08:23;;;;;;;106.40;39.28;;;10.50;99.90;;;-144.05;87.40;56908.31;5051316;28;20033;-81
2023/04/29 02:10:59;;;;;;;102.10;40.08;;;10.50;99.90;;;-144.05;87.92;56927.41;5052622;28;20033;-82
2023/04/29 02:13:25;;;;;;;105.03;41.42;;;10.40;99.90;;;-144.05;87.92;56880.69;5052365;28;20025;-83
2023/04/29 02:15:51;;;;;;;99.53;41.15;;;10.50;99.90;;;-144.05;87.62;56908.31;5052173;28;20044;-82
2023/04/29 02:18:17;;;;;;;97.47;38.92;;;10.40;99.90;;;-144.05;87.57;56912.56;5051101;28;20365;-80
2023/04/29 02:20:44;;;;;;;96.90;37.38;;;10.30;99.90;;;-144.05;86.89;56910.44;5034400;28;20400;-81
2023/04/29 02:23:10;;;;;;;101.93;38.13;;;10.30;99.90;;;-144.05;87.08;56912.56;5050892;28;20104;-81
2023/04/29 02:25:36;;;;;;;96.70;38.22;;;10.20;99.90;;;-144.05;87.00;56918.94;5050787;28;20397;-82
2023/04/29 02:28:02;;;;;;;100.80;39.03;;;10.10;99.90;;;-144.05;87.17;56921.06;5050686;28;20507;-81
2023/04/29 02:30:29;;;;;;;102.00;38.17;;;10.10;99.90;;;-144.05;87.43;56916.81;5050586;28;20037;-82
2023/04/29 02:32:54;;;;;;;93.95;40.08;;;10.00;99.90;;;-144.05;87.22;56914.69;5050696;28;20388;-82
2023/04/29 02:35:20;;;;;;;107.65;41.95;;;10.00;99.90;;;-144.05;87.23;56904.06;5034189;28;20115;-81
2023/04/29 02:37:46;;;;;;;104.78;43.20;;;10.00;99.90;;;-144.05;87.30;56884.94;5033383;28;20056;-85
2023/04/29 02:40:12;;;;;;;93.80;41.55;;;10.00;99.90;;;-144.05;87.24;56906.19;5033869;28;20103;-81
2023/04/29 02:42:38;;;;;;;107.43;41.80;;;10.00;99.90;;;-144.05;87.30;56908.31;5033784;28;20492;-81
2023/04/29 02:45:05;;;;;;;101.68;41.65;;;10.00;99.90;;;-144.05;87.21;56923.19;5051731;28;20155;-81
2023/04/29 02:47:31;;;;;;;105.43;42.17;;;10.00;99.90;;;-144.05;87.29;56914.69;5050382;28;20457;-81
2023/04/29 02:49:57;;;;;;;101.18;40.53;;;10.00;99.90;;;-144.05;87.52;56910.44;5051414;28;20067;-83
2023/04/29 02:52:23;;;;;;;103.55;40.53;;;9.90;99.90;;;-144.05;87.25;56882.81;5033737;28;20028;-82
2023/04/29 02:54:49;;;;;;;98.30;39.60;;;9.90;99.90;;;-144.05;87.07;56889.19;5050307;28;20029;-82
2023/04/29 02:57:14;;;;;;;99.15;38.58;;;9.90;99.90;;;-144.05;86.69;56908.31;5050367;28;20385;-83
2023/04/29 02:59:40;;;;;;;85.75;36.25;;;9.90;99.90;;;-144.05;86.92;56927.41;5049873;28;20480;-80
2023/04/29 03:02:06;;;;;;;95.78;36.60;;;9.90;99.90;;;-144.05;86.87;56884.94;5033599;28;20126;-82
2023/04/29 03:04:32;;;;;;;89.53;35.40;;;9.90;99.90;;;-144.05;86.72;56908.31;5050288;28;20088;-80
2023/04/29 03:06:58;;;;;;;92.07;37.42;;;9.90;99.90;;;-144.05;86.61;56901.94;5033692;28;20021;-83
2023/04/29 03:09:24;;;;;;;89.50;35.53;;;9.80;99.90;;;-144.05;87.02;56899.81;5051225;28;20385;-84
2023/04/29 03:11:50;;;;;;;86.57;34.90;;;9.80;99.90;;;-144.05;87.14;56899.81;5033412;28;20033;-82
2023/04/29 03:14:16;;;;;;;80.07;32.65;;;9.80;99.90;;;-144.05;86.99;56906.19;5049858;28;20063;-81
2023/04/29 03:16:41;;;;;;;66.80;28.08;;;9.80;99.90;;;-144.05;86.83;56925.28;5050162;28;20036;-83
2023/04/29 03:19:09;;;;;;;68.00;29.70;;;9.80;99.90;;;-144.05;86.80;56914.69;5052626;28;20053;-81
2023/04/29 03:21:35;;;;;;;61.95;28.20;;;9.80;99.90;;;-144.05;86.77;56906.19;5033387;28;20029;-80
2023/04/29 03:24:01;;;;;;;60.75;27.90;;;9.70;99.90;;;-144.05;86.88;56923.19;5049992;28;20112;-83
2023/04/29 03:26:26;;;;;;;59.85;25.27;;;9.70;99.90;;;-144.05;86.82;56912.56;5033671;28;20041;-81
2023/04/29 03:28:52;;;;;;;51.22;25.30;;;9.70;99.90;;;-144.05;87.47;56912.56;5033658;28;20029;-82
2023/04/29 03:31:20;;;;;;;56.67;24.63;;;9.70;99.90;;;-144.05;86.71;56933.78;5070502;28;20037;-78
2023/04/29 03:33:46;;;;;;;55.67;25.63;;;9.60;99.90;;;-144.05;86.97;56908.31;5061586;28;20072;-81
2023/04/29 03:36:12;;;;;;;51.08;23.73;;;9.60;99.90;;;-144.05;86.83;56925.28;5051437;28;20076;-81
2023/04/29 03:38:38;;;;;;;55.92;24.85;;;9.60;99.90;;;-144.05;86.77;56906.19;5032863;28;20503;-84
2023/04/29 03:41:04;;;;;;;53.95;25.88;;;9.60;99.90;;;-144.05;86.95;56908.31;5033168;28;20123;-81
2023/04/29 03:43:30;;;;;;;55.13;25.33;;;9.60;99.90;;;-144.05;86.35;56882.81;5051674;28;20104;-81
2023/04/29 03:45:56;;;;;;;49.95;25.65;;;9.60;99.90;;;-144.05;86.61;56880.69;5052843;28;20021;-80
2023/04/29 03:48:22;;;;;;;49.90;25.55;;;9.60;99.90;;;-144.05;87.18;56908.31;5052451;28;20032;-83
2023/04/29 03:50:48;;;;;;;53.35;25.90;;;9.60;99.90;;;-144.05;87.30;56921.06;5054283;28;20455;-79
2023/04/29 03:53:14;;;;;;;57.33;27.05;;;9.60;99.90;;;-144.05;87.22;56910.44;5055090;28;20021;-80
2023/04/29 03:55:40;;;;;;;61.22;27.33;;;9.60;99.90;;;-144.05;87.13;56916.81;5055654;28;20024;-80
2023/04/29 03:58:06;;;;;;;60.42;25.98;;;9.50;99.90;;;-144.05;87.07;56912.56;5056298;28;20095;-82
2023/04/29 04:00:33;;;;;;;55.70;27.25;;;9.60;99.90;;;-144.05;86.83;56910.44;5055602;28;20503;-81
2023/04/29 04:02:59;;;;;;;55.53;26.52;;;9.50;99.90;;;-144.05;87.00;56921.06;5055483;28;20060;-82
2023/04/29 04:05:25;;;;;;;59.25;26.55;;;9.60;99.90;;;-144.05;86.83;56933.78;5056125;28;20053;-80
2023/04/29 04:07:52;;;;;;;58.85;27.52;;;9.60;99.90;;;-144.05;87.27;56895.56;5055963;28;20445;-83
2023/04/29 04:10:19;;;;;;;58.20;28.13;;;9.60;99.90;;;-144.05;87.34;56912.56;5055215;28;20435;-81
2023/04/29 04:12:46;;;;;;;56.08;25.73;;;9.60;99.90;;;-144.05;87.18;56918.94;5056668;28;20481;-83
2023/04/29 04:15:12;;;;;;;61.72;26.05;;;9.60;99.90;;;-144.05;87.18;56918.94;5038817;28;20028;-82
2023/04/29 04:17:38;;;;;;;64.07;29.52;;;9.60;99.90;;;-144.05;87.48;56910.44;5055838;28;20021;-84
2023/04/29 04:20:05;;;;;;;59.05;29.02;;;9.60;99.90;;;-144.05;87.72;56925.28;5039007;28;20040;-83
2023/04/29 04:22:31;;;;;;;63.05;28.67;;;9.50;99.90;;;-144.05;87.22;56872.19;5056301;28;20041;-81
2023/04/29 04:24:57;;;;;;;61.72;28.77;;;9.60;99.90;;;-144.05;87.51;56916.81;5057415;28;20055;-82
2023/04/29 04:27:23;;;;;;;61.28;28.40;;;9.50;99.90;;;-144.05;87.48;56927.41;5039526;28;20029;-79
2023/04/29 04:29:53;;;;;;;59.60;28.42;;;9.50;99.90;;;-144.05;87.56;56908.31;5039128;28;20465;-79
2023/04/29 04:32:22;;;;;;;61.88;28.85;;;9.50;99.90;;;-144.05;87.83;56891.31;5056312;28;20029;-79
2023/04/29 04:34:49;;;;;;;62.10;26.73;;;9.60;99.90;;;-144.05;87.91;56908.31;5057972;28;20476;-82
2023/04/29 04:37:15;;;;;;;62.13;27.98;;;9.50;99.90;;;-144.05;87.36;56931.66;5057287;28;20036;-81
2023/04/29 04:39:41;;;;;;;61.17;28.30;;;9.50;99.90;;;-144.05;87.63;56912.56;5055145;28;20112;-81
2023/04/29 04:42:07;;;;;;;57.47;27.85;;;9.60;99.90;;;-144.05;87.76;56931.66;5055253;28;20033;-83
2023/04/29 04:44:32;;;;;;;56.90;28.13;;;9.60;99.90;;;-144.05;87.75;56912.56;5055125;28;20449;-82
2023/04/29 04:47:01;;;;;;;59.95;28.33;;;9.50;99.90;;;-144.05;87.99;56938.03;5055565;28;20546;-85
2023/04/29 04:49:27;;;;;;;61.03;27.50;;;9.60;99.90;;;-144.05;87.64;56921.06;5037705;28;20033;-81
2023/04/29 04:51:53;;;;;;;52.22;26.33;;;9.50;99.90;;;-144.05;87.74;56921.06;5038309;28;20531;-85
2023/04/29 04:54:19;;;;;;;59.42;27.80;;;9.60;99.90;;;-144.05;87.84;56923.19;5054312;28;20136;-83
2023/04/29 04:56:47;;;;;;;53.38;25.98;;;9.60;99.90;;;-144.05;87.65;56927.41;5055193;28;20024;-85
2023/04/29 04:59:13;;;;;;;59.65;27.38;;;9.60;99.90;;;-144.05;87.48;56944.41;5053651;28;20025;-85
2023/04/29 05:01:39;;;;;;;57.05;26.25;;;9.60;99.90;;;-144.05;87.47;56923.19;5055261;28;20049;-86
2023/04/29 05:04:05;;;;;;;59.60;28.25;;;9.50;99.90;;;-144.05;87.44;56912.56;5038313;28;20434;-83
2023/04/29 05:06:31;;;;;;;59.05;28.52;;;9.50;99.90;;;-144.05;87.67;56925.28;5054472;28;20032;-84
2023/04/29 05:08:56;;;;;;;62.03;28.77;;;9.60;99.90;;;-144.05;87.33;56929.53;5055604;28;20033;-83
2023/04/29 05:11:22;;;;;;;59.28;29.02;;;9.60;99.90;;;-144.05;86.92;56912.56;5056771;28;20029;-83
2023/04/29 05:13:48;;;;;;;55.38;27.95;;;9.50;99.90;;;-144.05;86.91;56908.31;5054651;28;20033;-84
2023/04/29 05:16:16;;;;;;;59.85;28.42;;;9.60;99.90;;;-144.05;86.80;56940.16;5037880;28;20031;-80
2023/04/29 05:18:44;;;;;;;57.35;28.15;;;9.60;99.90;;;-144.05;86.76;56906.19;5054250;28;20057;-83
2023/04/29 05:21:10;;;;;;;59.58;28.73;;;9.60;99.90;;;-144.05;86.79;56912.56;5037319;28;20021;-83
2023/04/29 05:23:36;;;;;;;55.10;28.42;;;9.70;99.90;;;-144.05;86.97;56889.19;5053513;28;20075;-83
2023/04/29 05:26:02;;;;;;;58.25;28.60;;;9.70;99.90;;;-144.05;86.90;56921.06;5054930;28;20037;-84
2023/04/29 05:28:28;;;;;;;57.80;29.25;;;9.70;99.90;;;-144.05;86.67;56908.31;5053458;28;20369;-83
2023/04/29 05:30:54;;;;;;;57.28;29.23;;;9.70;99.90;;;-144.05;86.51;56908.31;5037912;28;20052;-83
2023/04/29 05:33:20;;;;;;;57.65;28.38;;;9.70;99.90;;;-144.05;86.68;56921.06;5055687;28;20036;-81
2023/04/29 05:35:46;;;;;;;57.90;28.55;;;9.70;99.90;;;-144.05;86.69;56916.81;5077237;28;20021;-77
2023/04/29 05:38:12;;;;;;;58.75;29.58;;;9.80;99.90;;;-144.05;85.79;56923.19;5061623;28;20053;-82
2023/04/29 05:40:38;;;;;;;50.67;28.17;;;9.70;99.90;;;-144.05;85.59;56916.81;5064079;28;20043;-85
2023/04/29 05:43:04;;;;;;;54.58;28.25;;;9.80;99.90;;;-144.05;85.34;56889.19;5062036;28;20021;-86
2023/04/29 05:45:30;;;;;;;46.88;26.85;;;9.80;99.90;;;-144.05;85.06;56929.53;5066668;28;20029;-81
2023/04/29 05:47:56;;;;;;;53.03;28.25;;;9.80;99.90;;;-144.05;85.17;56916.81;5056969;28;20029;-83
2023/04/29 05:50:22;;;;;;;49.00;27.35;;;9.90;99.90;;;-144.05;84.93;56912.56;5055263;28;20441;-82
2023/04/29 05:52:48;;;;;;;44.75;26.23;;;9.80;99.90;;;-144.05;84.76;56940.16;5038289;28;20119;-82
2023/04/29 05:55:14;;;;;;;49.20;27.05;;;9.80;99.90;;;-144.05;84.91;56918.94;5037875;28;20089;-83
2023/04/29 05:57:40;;;;;;;51.10;27.52;;;9.90;99.90;;;-144.05;84.38;56904.06;5054683;28;20052;-84
2023/04/29 06:00:07;;;;;;;50.92;26.40;;;9.80;99.90;;;-144.05;84.33;56918.94;5056295;28;20075;-81
2023/04/29 06:02:33;;;;;;;46.80;27.33;;;9.90;99.90;;;-144.05;84.14;56893.44;5054434;28;20460;-83
2023/04/29 06:04:59;;;;;;;49.70;26.45;;;9.80;99.90;;;-144.05;84.16;56914.69;5037654;28;20060;-84
2023/04/29 06:07:26;;;;;;;49.15;25.85;;;9.80;99.90;;;-144.05;84.07;56910.44;5056551;28;20044;-83
2023/04/29 06:09:52;;;;;;;44.38;25.38;;;9.90;99.90;;;-144.05;83.92;56938.03;5055093;28;20056;-81
2023/04/29 06:12:17;;;;;;;45.38;26.00;;;9.90;99.90;;;-144.05;83.58;56914.69;5054380;28;20396;-82
2023/04/29 06:14:43;;;;;;;44.60;25.67;;;9.90;99.90;;;-144.05;83.44;56921.06;5054119;28;20127;-83
2023/04/29 06:17:11;;;;;;;46.58;25.60;;;10.00;99.90;;;-144.05;83.74;56921.06;5055128;28;20357;-83
2023/04/29 06:19:37;;;;;;;46.80;25.15;;;10.10;99.90;;;-144.05;83.17;56916.81;5036733;28;20031;-81
2023/04/29 06:22:03;;;;;;;44.15;25.10;;;10.00;99.90;;;-144.05;83.13;56912.56;5053887;28;20025;-83
2023/04/29 06:24:29;;;;;;;44.70;25.45;;;10.10;99.90;;;-144.05;82.89;56916.81;5054342;28;20032;-83
2023/04/29 06:26:54;;;;;;;43.13;24.50;;;10.00;99.90;;;-144.05;83.33;56910.44;5051861;28;20017;-81
2023/04/29 06:29:20;;;;;;;44.63;25.95;;;10.00;99.90;;;-144.05;82.92;56908.31;5052187;28;20025;-83
2023/04/29 06:31:46;;;;;;;43.33;25.35;;;10.00;99.90;;;-144.05;82.88;56921.06;5052282;28;20362;-80
2023/04/29 06:34:12;;;;;;;43.88;25.35;;;10.00;99.90;;;-144.05;83.03;56918.94;5035353;28;20032;-82
2023/04/29 06:36:38;;;;;;;45.00;26.65;;;9.90;99.90;;;-144.05;83.08;56925.28;5052136;28;20060;-82
2023/04/29 06:39:04;;;;;;;44.22;26.38;;;10.00;99.90;;;-144.05;83.09;56895.56;5034820;28;20029;-84
2023/04/29 06:41:30;;;;;;;44.53;25.33;;;10.10;99.90;;;-144.05;83.04;56912.56;5035122;28;20058;-83
2023/04/29 06:43:56;;;;;;;44.22;26.17;;;10.10;99.90;;;-144.05;82.81;56887.06;5053520;28;20576;-83
2023/04/29 06:46:22;;;;;;;45.45;26.05;;;10.10;99.90;;;-144.05;82.78;56914.69;5051878;28;20032;-85
2023/04/29 06:48:48;;;;;;;39.60;25.35;;;10.00;99.90;;;-144.05;82.94;56927.41;5053177;28;20492;-83
2023/04/29 06:51:14;;;;;;;41.85;26.33;;;10.10;99.90;;;-144.05;83.00;56912.56;5034528;28;20064;-81
2023/04/29 06:53:40;;;;;;;42.03;25.25;;;10.10;99.90;;;-144.05;82.64;56925.28;5052629;28;20101;-84
2023/04/29 06:56:07;;;;;;;43.67;25.65;;;10.00;99.90;;;-144.05;82.62;56916.81;5051256;28;20115;-84
2023/04/29 06:58:32;;;;;;;42.80;26.02;;;9.90;99.90;;;-144.05;82.47;56918.94;5035982;28;20059;-84
2023/04/29 07:01:02;;;;;;;44.30;24.77;;;9.90;99.90;;;-144.05;82.39;56878.56;5053194;28;20017;-83
2023/04/29 07:03:29;;;;;;;40.42;24.30;;;9.80;99.90;;;-144.05;82.57;56912.56;5053529;28;20044;-83
2023/04/29 07:05:54;;;;;;;41.42;24.52;;;9.80;99.90;;;-144.05;83.19;56914.69;5036103;28;20092;-81
2023/04/29 07:08:20;;;;;;;41.35;24.08;;;9.70;99.90;;;-144.05;83.67;56897.69;5035807;28;20071;-84
2023/04/29 07:10:57;;;;;;;45.95;24.88;;;9.70;99.90;;;-144.05;83.33;56912.56;5052156;28;20033;-82
2023/04/29 07:13:24;;;;;;;42.97;25.65;;;9.70;99.90;;;-144.05;83.64;56931.66;5052206;28;20053;-85
2023/04/29 07:15:50;;;;;;;44.10;26.98;;;9.70;99.90;;;-144.05;83.50;56904.06;5051096;28;20108;-87
2023/04/29 07:18:16;;;;;;;49.58;26.58;;;9.70;99.90;;;-144.05;83.73;56908.31;5053467;28;20055;-81
2023/04/29 07:20:45;;;;;;;47.75;26.85;;;9.70;99.90;;;-144.05;83.96;56938.03;5052464;28;20071;-85
2023/04/29 07:23:11;;;;;;;46.20;25.92;;;9.70;99.90;;;-144.05;84.01;56914.69;5054878;28;20086;-85
2023/04/29 07:25:37;;;;;;;42.15;26.05;;;9.70;99.90;;;-144.05;84.28;56921.06;5035941;28;20035;-88
2023/04/29 07:28:03;;;;;;;47.42;26.48;;;9.70;99.90;;;-144.05;84.24;56899.81;5053564;28;20029;-82
2023/04/29 07:30:32;;;;;;;46.85;26.63;;;9.70;99.90;;;-144.05;84.03;56901.94;5036100;28;20074;-83
2023/04/29 07:33:00;;;;;;;43.03;25.08;;;9.70;99.90;;;-144.05;83.77;56931.66;5054754;28;20141;-85
2023/04/29 07:35:26;;;;;;;45.33;25.40;;;9.80;99.90;;;-144.05;83.81;56927.41;5036591;28;20465;-83
2023/04/29 07:37:52;;;;;;;49.80;26.50;;;9.70;99.90;;;-144.05;83.84;56935.91;5062545;28;20032;-79
2023/04/29 07:40:18;;;;;;;46.42;26.17;;;9.80;99.90;;;-144.05;83.94;56927.41;5070482;28;20037;-84
2023/04/29 07:43:10;;;;;;;48.00;27.50;;;9.70;99.90;;;-144.05;83.63;56914.69;5053782;28;20036;-83
2023/04/29 07:45:36;;;;;;;40.75;24.15;;;9.70;99.90;;;-144.05;83.84;56908.31;5035935;28;20041;-83
2023/04/29 07:48:02;;;;;;;50.83;27.33;;;9.70;99.90;;;-144.05;83.84;56906.19;5053263;28;20029;-80
2023/04/29 07:50:28;;;;;;;48.97;26.85;;;9.60;99.90;;;-144.05;83.82;56933.78;5051669;28;20033;-83
2023/04/29 07:52:56;;;;;;;55.03;29.48;;;9.60;99.90;;;-144.05;84.05;56940.16;5035551;28;20056;-82
2023/04/29 07:55:22;;;;;;;50.58;27.85;;;9.60;99.90;;;-144.05;85.34;56925.28;5051989;28;20025;-82
2023/04/29 07:57:48;;;;;;;49.50;27.30;;;9.60;99.90;;;-144.05;85.25;56938.03;5051872;28;20127;-84
2023/04/29 08:00:14;;;;;;;56.67;29.63;;;9.50;99.90;;;-144.05;84.95;56904.06;5052116;28;20029;-85
2023/04/29 08:02:41;;;;;;;51.97;28.65;;;9.50;99.90;;;-144.05;84.54;56927.41;5052103;28;20029;-85
2023/04/29 08:05:08;;;;;;;57.45;29.38;;;9.60;99.90;;;-144.05;84.89;56933.78;5035481;28;20428;-85
2023/04/29 08:07:33;;;;;;;57.15;30.40;;;9.60;99.90;;;-144.05;84.81;56912.56;5052482;28;20032;-84
2023/04/29 08:09:59;;;;;;;56.22;29.55;;;9.60;99.90;;;-144.05;85.04;56942.28;5035726;28;20123;-84
2023/04/29 08:12:25;;;;;;;59.42;30.58;;;9.60;99.90;;;-144.05;85.11;56925.28;5052417;28;20119;-83
2023/04/29 08:14:51;;;;;;;68.57;34.15;;;9.60;99.90;;;-144.05;85.14;56912.56;5053616;28;20094;-82
2023/04/29 08:17:17;;;;;;;60.90;30.38;;;9.60;99.90;;;-144.05;84.99;56916.81;5045750;28;20037;-85
2023/04/29 08:19:43;;;;;;;58.92;31.13;;;9.60;99.90;;;-144.05;84.88;56927.41;5058658;28;20033;-86
2023/04/29 08:22:10;;;;;;;65.88;32.50;;;9.70;99.90;;;-144.05;84.59;56927.41;5041913;28;20025;-85
2023/04/29 08:24:36;;;;;;;68.40;32.85;;;9.70;99.90;;;-144.05;84.56;56908.31;5057506;28;20025;-80
2023/04/29 08:27:03;;;;;;;60.45;32.40;;;9.70;99.90;;;-144.05;84.72;56906.19;5055133;28;20146;-83
2023/04/29 08:29:34;;;;;;;66.03;33.13;;;9.70;99.90;;;-144.05;84.91;56906.19;5035060;28;20021;-85
2023/04/29 08:32:00;;;;;;;65.13;32.40;;;9.90;99.90;;;-144.05;84.53;56929.53;5051654;28;20029;-80
2023/04/29 08:34:26;;;;;;;69.75;32.72;;;9.70;99.90;;;-144.05;84.41;56910.44;5053155;28;20489;-82
2023/04/29 08:36:52;;;;;;;64.78;33.17;;;9.80;99.90;;;-144.05;84.44;56912.56;5053730;28;20126;-84
2023/04/29 08:39:18;;;;;;;61.95;32.33;;;9.70;99.90;;;-144.05;84.51;56923.19;5057834;28;20080;-83
2023/04/29 08:41:48;;;;;;;71.45;35.13;;;9.90;99.90;;;-144.05;84.43;56906.19;5055775;28;20032;-80
2023/04/29 08:44:16;;;;;;;70.20;34.42;;;9.80;99.90;;;-144.05;84.37;56935.91;5039083;28;20546;-83
2023/04/29 08:46:45;;;;;;;65.93;33.53;;;9.90;99.90;;;-144.05;83.89;56921.06;5055429;28;20025;-83
2023/04/29 08:49:12;;;;;;;70.32;34.78;;;9.80;99.90;;;-144.05;83.61;56921.06;5055228;28;20033;-85
2023/04/29 08:51:38;;;;;;;69.13;33.95;;;9.80;99.90;;;-144.05;83.38;56923.19;5055257;28;20291;-85
2023/04/29 08:54:06;;;;;;;75.22;34.47;;;9.80;99.90;;;-144.05;83.21;56916.81;5038216;28;20025;-80
2023/04/29 08:56:32;;;;;;;71.82;34.90;;;9.80;99.90;;;-144.05;83.54;56938.03;5054740;28;20033;-82
2023/04/29 08:59:01;;;;;;;75.30;35.75;;;9.90;99.90;;;-144.05;83.56;56904.06;5038030;28;20035;-82
2023/04/29 09:01:29;;;;;;;71.68;36.78;;;9.90;99.90;;;-144.05;83.31;56925.28;5037955;28;20025;-83
2023/04/29 09:05:03;;;;;;;67.22;34.42;;;9.90;99.90;;;-144.05;83.70;56908.31;5055354;28;20025;-84
2023/04/29 09:07:32;;;;;;;72.28;33.50;;;9.90;99.90;;;-144.05;83.44;56895.56;5045391;28;20124;-83
2023/04/29 09:09:59;;;;;;;72.32;34.05;;;10.00;99.90;;;-144.05;83.00;56904.06;5054039;28;20040;-84
2023/04/29 09:12:25;;;;;;;73.75;35.70;;;10.00;99.90;;;-144.05;83.09;56910.44;5055784;28;20435;-83
2023/04/29 09:14:51;;;;;;;72.22;35.35;;;10.10;99.90;;;-144.05;82.86;56935.91;5054375;28;20071;-81
2023/04/29 09:17:17;;;;;;;73.85;35.15;;;10.20;99.90;;;-144.05;82.94;56929.53;5055876;28;20111;-82
2023/04/29 09:19:44;;;;;;;69.00;33.95;;;10.20;99.90;;;-144.05;82.54;56901.94;5054551;28;20055;-81
2023/04/29 09:22:10;;;;;;;66.97;33.28;;;10.20;99.90;;;-144.05;82.52;56912.56;5037744;28;20021;-84
2023/04/29 09:24:37;;;;;;;63.90;33.40;;;10.20;99.90;;;-144.05;82.26;56929.53;5037577;28;20025;-83
2023/04/29 09:27:03;;;;;;;66.70;33.80;;;10.30;99.90;;;-144.05;82.31;56925.28;5054483;28;20143;-86
2023/04/29 09:29:31;;;;;;;68.05;34.72;;;10.30;99.90;;;-144.05;81.84;56931.66;5055330;28;20231;-83
2023/04/29 09:31:57;;;;;;;72.05;36.00;;;10.50;99.90;;;-144.05;81.91;56940.16;5054670;28;20080;-83
2023/04/29 09:34:37;;;;;;;66.72;33.47;;;10.40;99.90;;;-144.05;81.42;56946.53;5056121;28;20531;-81
2023/04/29 09:37:03;;;;;;;66.72;33.33;;;10.40;99.90;;;-144.05;81.30;56916.81;5056132;28;20374;-86
2023/04/29 09:39:38;;;;;;;67.45;33.67;;;10.50;99.90;;;-144.05;81.50;56904.06;5057791;28;20029;-84
2023/04/29 09:42:05;;;;;;;68.53;32.35;;;10.60;99.90;;;-144.05;81.07;56918.94;5057844;28;20075;-84
2023/04/29 09:44:35;;;;;;;59.60;32.05;;;10.90;99.90;;;-144.05;80.39;56904.06;5060698;28;20025;-78
2023/04/29 09:47:06;;;;;;;67.45;33.78;;;11.10;99.90;;;-144.05;78.77;56893.44;5076838;28;20112;-84
2023/04/29 09:49:40;;;;;;;59.45;30.27;;;11.30;99.90;;;-144.05;77.01;56914.69;5056483;28;20036;-83
2023/04/29 09:52:15;;;;;;;53.25;28.83;;;11.20;99.90;;;-144.05;76.52;56912.56;5039252;28;20032;-81
2023/04/29 09:54:43;;;;;;;52.45;29.27;;;11.30;99.90;;;-144.05;75.92;56908.31;5059475;28;20079;-84
2023/04/29 09:57:14;;;;;;;54.28;30.90;;;11.50;99.90;;;-144.05;75.70;56910.44;5057193;28;20086;-84
2023/04/29 09:59:42;;;;;;;49.42;27.65;;;11.50;99.90;;;-144.05;75.38;56914.69;5058838;28;20436;-82
2023/04/29 10:02:17;;;;;;;47.67;27.10;;;11.50;99.90;;;-144.05;74.21;56918.94;5057161;28;20572;-85